sensor_id;sensor_type;location;lat;lon;timestamp;temperature;humidity
6439;DHT22;3252;52.540;13.290;2022-07-01T00:00:15;23.10;99.90
6439;DHT22;3252;52.540;13.290;2022-07-01T00:02:17;23.10;99.90
6439;DHT22;3252;52.540;13.290;2022-07-01T00:04:21;23.10;99.90
6439;DHT22;3252;52.540;13.290;2022-07-01T00:06:46;23.10;99.90
6439;DHT22;3252;52.540;13.290;2022-07-01T00:08:48;23.00;99.90
6439;DHT22;3252;52.540;13.290;2022-07-01T00:10:50;23.00;99.90
6439;DHT22;3252;52.540;13.290;2022-07-01T00:12:52;23.00;99.90
6439;DHT22;3252;52.540;13.290;2022-07-01T00:14:54;23.00;99.90
6439;DHT22;3252;52.540;13.290;2022-07-01T00:16:56;23.00;99.90
6439;DHT22;3252;52.540;13.290;2022-07-01T00:18:58;23.00;99.90
6439;DHT22;3252;52.540;13.290;2022-07-01T00:21:03;23.00;99.90
6439;DHT22;3252;52.540;13.290;2022-07-01T00:23:05;23.00;99.90
6439;DHT22;3252;52.540;13.290;2022-07-01T00:25:08;23.00;99.90
6439;DHT22;3252;52.540;13.290;2022-07-01T00:27:10;23.00;99.90
6439;DHT22;3252;52.540;13.290;2022-07-01T00:29:13;23.00;99.90
6439;DHT22;3252;52.540;13.290;2022-07-01T00:31:15;23.00;99.90
6439;DHT22;3252;52.540;13.290;2022-07-01T00:33:17;23.00;99.90
6439;DHT22;3252;52.540;13.290;2022-07-01T00:35:20;23.00;99.90
6439;DHT22;3252;52.540;13.290;2022-07-01T00:37:24;23.00;99.90
6439;DHT22;3252;52.540;13.290;2022-07-01T00:39:26;23.00;99.90
6439;DHT22;3252;52.540;13.290;2022-07-01T00:41:31;23.00;99.90
6439;DHT22;3252;52.540;13.290;2022-07-01T00:43:35;23.00;99.90
6439;DHT22;3252;52.540;13.290;2022-07-01T00:45:44;23.00;99.90
6439;DHT22;3252;52.540;13.290;2022-07-01T00:47:46;23.00;99.90
6439;DHT22;3252;52.540;13.290;2022-07-01T00:49:48;23.00;99.90
6439;DHT22;3252;52.540;13.290;2022-07-01T00:51:51;23.00;99.90
6439;DHT22;3252;52.540;13.290;2022-07-01T00:53:54;22.90;99.90
6439;DHT22;3252;52.540;13.290;2022-07-01T00:55:59;23.00;99.90
6439;DHT22;3252;52.540;13.290;2022-07-01T00:58:01;22.90;99.90
6439;DHT22;3252;52.540;13.290;2022-07-01T01:00:04;22.90;99.90
6439;DHT22;3252;52.540;13.290;2022-07-01T01:02:08;22.90;99.90
6439;DHT22;3252;52.540;13.290;2022-07-01T01:04:11;22.90;99.90
6439;DHT22;3252;52.540;13.290;2022-07-01T01:06:13;22.90;99.90
6439;DHT22;3252;52.540;13.290;2022-07-01T01:08:15;23.00;99.90
6439;DHT22;3252;52.540;13.290;2022-07-01T01:10:19;22.90;99.90
6439;DHT22;3252;52.540;13.290;2022-07-01T01:12:26;22.90;99.90
6439;DHT22;3252;52.540;13.290;2022-07-01T01:14:28;22.90;99.90
6439;DHT22;3252;52.540;13.290;2022-07-01T01:16:30;22.90;99.90
6439;DHT22;3252;52.540;13.290;2022-07-01T01:18:35;22.90;99.90
6439;DHT22;3252;52.540;13.290;2022-07-01T01:20:38;22.80;99.90
6439;DHT22;3252;52.540;13.290;2022-07-01T01:22:40;22.70;99.90
6439;DHT22;3252;52.540;13.290;2022-07-01T01:24:43;22.70;99.90
6439;DHT22;3252;52.540;13.290;2022-07-01T01:26:45;22.70;99.90
6439;DHT22;3252;52.540;13.290;2022-07-01T01:28:48;22.60;99.90
6439;DHT22;3252;52.540;13.290;2022-07-01T01:30:50;22.60;99.90
6439;DHT22;3252;52.540;13.290;2022-07-01T01:32:53;22.60;99.90
6439;DHT22;3252;52.540;13.290;2022-07-01T01:34:55;22.60;99.90
6439;DHT22;3252;52.540;13.290;2022-07-01T01:36:58;22.60;99.90
6439;DHT22;3252;52.540;13.290;2022-07-01T01:39:07;22.50;99.90
6439;DHT22;3252;52.540;13.290;2022-07-01T01:41:11;22.50;99.90
6439;DHT22;3252;52.540;13.290;2022-07-01T01:43:13;22.50;99.90
6439;DHT22;3252;52.540;13.290;2022-07-01T01:45:16;22.50;99.90
6439;DHT22;3252;52.540;13.290;2022-07-01T01:47:19;22.40;99.90
6439;DHT22;3252;52.540;13.290;2022-07-01T01:49:21;22.40;99.90
6439;DHT22;3252;52.540;13.290;2022-07-01T01:51:23;22.40;99.90
6439;DHT22;3252;52.540;13.290;2022-07-01T01:53:27;22.40;99.90
6439;DHT22;3252;52.540;13.290;2022-07-01T01:55:29;22.40;99.90
6439;DHT22;3252;52.540;13.290;2022-07-01T01:57:31;22.40;99.90
6439;DHT22;3252;52.540;13.290;2022-07-01T01:59:33;22.40;99.90
6439;DHT22;3252;52.540;13.290;2022-07-01T02:01:35;22.40;99.90
6439;DHT22;3252;52.540;13.290;2022-07-01T02:03:38;22.40;99.90
6439;DHT22;3252;52.540;13.290;2022-07-01T02:05:40;22.40;99.90
6439;DHT22;3252;52.540;13.290;2022-07-01T02:07:42;22.40;99.90
6439;DHT22;3252;52.540;13.290;2022-07-01T02:09:45;22.40;99.90
6439;DHT22;3252;52.540;13.290;2022-07-01T02:11:47;22.50;99.90
6439;DHT22;3252;52.540;13.290;2022-07-01T02:13:49;22.50;99.90
6439;DHT22;3252;52.540;13.290;2022-07-01T02:15:52;22.50;99.90
6439;DHT22;3252;52.540;13.290;2022-07-01T02:17:54;22.50;99.90
6439;DHT22;3252;52.540;13.290;2022-07-01T02:19:57;22.50;99.90
6439;DHT22;3252;52.540;13.290;2022-07-01T02:21:59;22.50;99.90
6439;DHT22;3252;52.540;13.290;2022-07-01T02:24:01;22.50;99.90
6439;DHT22;3252;52.540;13.290;2022-07-01T02:26:04;22.50;99.90
6439;DHT22;3252;52.540;13.290;2022-07-01T02:28:06;22.50;99.90
6439;DHT22;3252;52.540;13.290;2022-07-01T02:30:09;22.50;99.90
6439;DHT22;3252;52.540;13.290;2022-07-01T02:32:13;22.50;99.90
6439;DHT22;3252;52.540;13.290;2022-07-01T02:34:15;22.50;99.90
6439;DHT22;3252;52.540;13.290;2022-07-01T02:36:17;22.50;99.90
6439;DHT22;3252;52.540;13.290;2022-07-01T02:38:19;22.50;99.90
6439;DHT22;3252;52.540;13.290;2022-07-01T02:40:21;22.50;99.90
6439;DHT22;3252;52.540;13.290;2022-07-01T02:42:24;22.60;99.90
6439;DHT22;3252;52.540;13.290;2022-07-01T02:44:27;22.50;99.90
6439;DHT22;3252;52.540;13.290;2022-07-01T02:46:29;22.60;99.90
6439;DHT22;3252;52.540;13.290;2022-07-01T02:48:31;22.50;99.90
6439;DHT22;3252;52.540;13.290;2022-07-01T02:50:33;22.50;99.90
6439;DHT22;3252;52.540;13.290;2022-07-01T02:52:37;22.60;99.90
6439;DHT22;3252;52.540;13.290;2022-07-01T02:54:39;22.60;99.90
6439;DHT22;3252;52.540;13.290;2022-07-01T02:56:41;22.60;99.90
6439;DHT22;3252;52.540;13.290;2022-07-01T02:58:44;22.60;99.90
6439;DHT22;3252;52.540;13.290;2022-07-01T03:00:46;22.50;99.90
6439;DHT22;3252;52.540;13.290;2022-07-01T03:02:49;22.50;99.90
6439;DHT22;3252;52.540;13.290;2022-07-01T03:04:52;22.50;99.90
6439;DHT22;3252;52.540;13.290;2022-07-01T03:06:54;22.40;99.90
6439;DHT22;3252;52.540;13.290;2022-07-01T03:08:57;22.40;99.90
6439;DHT22;3252;52.540;13.290;2022-07-01T03:10:59;22.30;99.90
6439;DHT22;3252;52.540;13.290;2022-07-01T03:13:02;22.30;99.90
6439;DHT22;3252;52.540;13.290;2022-07-01T03:15:07;22.40;99.90
6439;DHT22;3252;52.540;13.290;2022-07-01T03:17:09;22.40;99.90
6439;DHT22;3252;52.540;13.290;2022-07-01T03:19:11;22.40;99.90
6439;DHT22;3252;52.540;13.290;2022-07-01T03:21:14;22.40;99.90
6439;DHT22;3252;52.540;13.290;2022-07-01T03:23:15;22.40;99.90
6439;DHT22;3252;52.540;13.290;2022-07-01T03:25:18;22.40;99.90
6439;DHT22;3252;52.540;13.290;2022-07-01T03:27:21;22.40;99.90
6439;DHT22;3252;52.540;13.290;2022-07-01T03:29:23;22.40;99.90
6439;DHT22;3252;52.540;13.290;2022-07-01T03:31:27;22.40;99.90
6439;DHT22;3252;52.540;13.290;2022-07-01T03:33:29;22.50;99.90
6439;DHT22;3252;52.540;13.290;2022-07-01T03:35:31;22.50;99.90
6439;DHT22;3252;52.540;13.290;2022-07-01T03:37:41;22.50;99.90
6439;DHT22;3252;52.540;13.290;2022-07-01T03:39:43;22.50;99.90
6439;DHT22;3252;52.540;13.290;2022-07-01T03:41:45;22.50;99.90
6439;DHT22;3252;52.540;13.290;2022-07-01T03:43:47;22.60;99.90
6439;DHT22;3252;52.540;13.290;2022-07-01T03:45:50;22.60;99.90
6439;DHT22;3252;52.540;13.290;2022-07-01T03:47:55;22.60;99.90
6439;DHT22;3252;52.540;13.290;2022-07-01T03:49:58;22.60;99.90
6439;DHT22;3252;52.540;13.290;2022-07-01T03:52:00;22.60;99.90
6439;DHT22;3252;52.540;13.290;2022-07-01T03:54:02;22.60;99.90
6439;DHT22;3252;52.540;13.290;2022-07-01T03:56:22;22.60;99.90
6439;DHT22;3252;52.540;13.290;2022-07-01T03:58:24;22.60;99.90
6439;DHT22;3252;52.540;13.290;2022-07-01T04:00:26;22.60;99.90
6439;DHT22;3252;52.540;13.290;2022-07-01T04:02:29;22.70;99.90
6439;DHT22;3252;52.540;13.290;2022-07-01T04:04:34;22.70;99.90
6439;DHT22;3252;52.540;13.290;2022-07-01T04:06:36;22.70;99.90
6439;DHT22;3252;52.540;13.290;2022-07-01T04:08:39;22.70;99.90
6439;DHT22;3252;52.540;13.290;2022-07-01T04:10:41;22.70;99.90
6439;DHT22;3252;52.540;13.290;2022-07-01T04:12:44;22.70;99.90
6439;DHT22;3252;52.540;13.290;2022-07-01T04:14:48;22.70;99.90
6439;DHT22;3252;52.540;13.290;2022-07-01T04:16:50;22.70;99.90
6439;DHT22;3252;52.540;13.290;2022-07-01T04:18:53;22.70;99.90
6439;DHT22;3252;52.540;13.290;2022-07-01T04:20:56;22.70;99.90
6439;DHT22;3252;52.540;13.290;2022-07-01T04:23:16;22.70;99.90
6439;DHT22;3252;52.540;13.290;2022-07-01T04:25:19;22.70;99.90
6439;DHT22;3252;52.540;13.290;2022-07-01T04:27:21;22.70;99.90
6439;DHT22;3252;52.540;13.290;2022-07-01T04:29:23;22.80;99.90
6439;DHT22;3252;52.540;13.290;2022-07-01T04:31:25;22.80;99.90
6439;DHT22;3252;52.540;13.290;2022-07-01T04:33:27;22.90;99.90
6439;DHT22;3252;52.540;13.290;2022-07-01T04:35:29;22.90;99.90
6439;DHT22;3252;52.540;13.290;2022-07-01T04:37:33;22.90;99.90
6439;DHT22;3252;52.540;13.290;2022-07-01T04:39:35;22.90;99.90
6439;DHT22;3252;52.540;13.290;2022-07-01T04:41:37;23.00;99.90
6439;DHT22;3252;52.540;13.290;2022-07-01T04:43:57;23.00;99.90
6439;DHT22;3252;52.540;13.290;2022-07-01T04:45:59;23.00;99.90
6439;DHT22;3252;52.540;13.290;2022-07-01T04:48:01;23.00;99.90
6439;DHT22;3252;52.540;13.290;2022-07-01T04:50:05;23.00;99.90
6439;DHT22;3252;52.540;13.290;2022-07-01T04:52:07;23.00;99.90
6439;DHT22;3252;52.540;13.290;2022-07-01T04:54:11;23.10;99.90
6439;DHT22;3252;52.540;13.290;2022-07-01T04:56:13;23.10;99.90
6439;DHT22;3252;52.540;13.290;2022-07-01T04:58:15;23.10;99.90
6439;DHT22;3252;52.540;13.290;2022-07-01T05:00:17;23.20;99.90
6439;DHT22;3252;52.540;13.290;2022-07-01T05:02:20;23.20;99.90
6439;DHT22;3252;52.540;13.290;2022-07-01T05:04:22;23.30;99.90
6439;DHT22;3252;52.540;13.290;2022-07-01T05:06:24;23.30;99.90
6439;DHT22;3252;52.540;13.290;2022-07-01T05:08:26;23.30;99.90
6439;DHT22;3252;52.540;13.290;2022-07-01T05:10:30;23.40;99.90
6439;DHT22;3252;52.540;13.290;2022-07-01T05:12:32;23.40;99.90
6439;DHT22;3252;52.540;13.290;2022-07-01T05:14:34;23.50;99.90
6439;DHT22;3252;52.540;13.290;2022-07-01T05:16:36;23.50;99.90
6439;DHT22;3252;52.540;13.290;2022-07-01T05:18:38;23.60;99.90
6439;DHT22;3252;52.540;13.290;2022-07-01T05:20:58;23.70;99.90
6439;DHT22;3252;52.540;13.290;2022-07-01T05:23:18;23.80;99.90
6439;DHT22;3252;52.540;13.290;2022-07-01T05:25:20;23.80;99.90
6439;DHT22;3252;52.540;13.290;2022-07-01T05:27:23;23.90;99.90
6439;DHT22;3252;52.540;13.290;2022-07-01T05:29:26;23.90;99.90
6439;DHT22;3252;52.540;13.290;2022-07-01T05:31:28;23.90;99.90
6439;DHT22;3252;52.540;13.290;2022-07-01T05:33:30;24.00;99.90
6439;DHT22;3252;52.540;13.290;2022-07-01T05:35:33;24.00;99.90
6439;DHT22;3252;52.540;13.290;2022-07-01T05:37:34;24.00;99.90
6439;DHT22;3252;52.540;13.290;2022-07-01T05:39:37;24.10;99.90
6439;DHT22;3252;52.540;13.290;2022-07-01T05:41:42;24.10;99.90
6439;DHT22;3252;52.540;13.290;2022-07-01T05:43:46;24.10;99.90
6439;DHT22;3252;52.540;13.290;2022-07-01T05:45:49;24.10;99.90
6439;DHT22;3252;52.540;13.290;2022-07-01T05:47:51;24.10;99.90
6439;DHT22;3252;52.540;13.290;2022-07-01T05:49:53;24.20;99.90
6439;DHT22;3252;52.540;13.290;2022-07-01T05:51:55;24.20;99.90
6439;DHT22;3252;52.540;13.290;2022-07-01T05:53:57;24.20;99.90
6439;DHT22;3252;52.540;13.290;2022-07-01T05:56:00;24.20;99.90
6439;DHT22;3252;52.540;13.290;2022-07-01T05:58:02;24.10;99.90
6439;DHT22;3252;52.540;13.290;2022-07-01T06:00:07;24.10;99.90
6439;DHT22;3252;52.540;13.290;2022-07-01T06:02:12;24.10;99.90
6439;DHT22;3252;52.540;13.290;2022-07-01T06:04:15;24.20;99.90
6439;DHT22;3252;52.540;13.290;2022-07-01T06:06:17;24.20;99.90
6439;DHT22;3252;52.540;13.290;2022-07-01T06:08:20;24.20;99.90
6439;DHT22;3252;52.540;13.290;2022-07-01T06:10:22;24.20;99.90
6439;DHT22;3252;52.540;13.290;2022-07-01T06:12:25;24.20;99.90
6439;DHT22;3252;52.540;13.290;2022-07-01T06:14:30;24.20;99.90
6439;DHT22;3252;52.540;13.290;2022-07-01T06:16:34;24.20;99.90
6439;DHT22;3252;52.540;13.290;2022-07-01T06:18:36;24.20;99.90
6439;DHT22;3252;52.540;13.290;2022-07-01T06:20:38;24.20;99.90
6439;DHT22;3252;52.540;13.290;2022-07-01T06:22:40;24.20;99.90
6439;DHT22;3252;52.540;13.290;2022-07-01T06:24:42;24.20;99.90
6439;DHT22;3252;52.540;13.290;2022-07-01T06:26:45;24.30;99.90
6439;DHT22;3252;52.540;13.290;2022-07-01T06:28:49;24.20;99.90
6439;DHT22;3252;52.540;13.290;2022-07-01T06:30:51;24.20;99.90
6439;DHT22;3252;52.540;13.290;2022-07-01T06:32:57;24.20;99.90
6439;DHT22;3252;52.540;13.290;2022-07-01T06:34:59;24.20;99.90
6439;DHT22;3252;52.540;13.290;2022-07-01T06:37:01;24.20;99.90
6439;DHT22;3252;52.540;13.290;2022-07-01T06:39:04;24.20;99.90
6439;DHT22;3252;52.540;13.290;2022-07-01T06:41:06;24.20;99.90
6439;DHT22;3252;52.540;13.290;2022-07-01T06:43:25;24.20;99.90
6439;DHT22;3252;52.540;13.290;2022-07-01T06:45:28;24.20;99.90
6439;DHT22;3252;52.540;13.290;2022-07-01T06:47:29;24.20;99.90
6439;DHT22;3252;52.540;13.290;2022-07-01T06:49:33;24.20;99.90
6439;DHT22;3252;52.540;13.290;2022-07-01T06:51:35;24.30;99.90
6439;DHT22;3252;52.540;13.290;2022-07-01T06:53:37;24.30;99.90
6439;DHT22;3252;52.540;13.290;2022-07-01T06:55:39;24.30;99.90
6439;DHT22;3252;52.540;13.290;2022-07-01T06:57:41;24.40;99.90
6439;DHT22;3252;52.540;13.290;2022-07-01T06:59:43;24.50;99.90
6439;DHT22;3252;52.540;13.290;2022-07-01T07:01:45;24.50;99.90
6439;DHT22;3252;52.540;13.290;2022-07-01T07:03:47;24.50;99.90
6439;DHT22;3252;52.540;13.290;2022-07-01T07:05:52;24.50;99.90
6439;DHT22;3252;52.540;13.290;2022-07-01T07:07:54;24.50;99.90
6439;DHT22;3252;52.540;13.290;2022-07-01T07:09:56;24.60;99.90
6439;DHT22;3252;52.540;13.290;2022-07-01T07:11:58;24.60;99.90
6439;DHT22;3252;52.540;13.290;2022-07-01T07:14:00;24.60;99.90
6439;DHT22;3252;52.540;13.290;2022-07-01T07:16:03;24.60;99.90
6439;DHT22;3252;52.540;13.290;2022-07-01T07:18:05;24.60;99.90
6439;DHT22;3252;52.540;13.290;2022-07-01T07:20:09;24.60;99.90
6439;DHT22;3252;52.540;13.290;2022-07-01T07:22:12;24.60;99.90
6439;DHT22;3252;52.540;13.290;2022-07-01T07:24:14;24.60;99.90
6439;DHT22;3252;52.540;13.290;2022-07-01T07:26:16;24.60;99.90
6439;DHT22;3252;52.540;13.290;2022-07-01T07:28:18;24.60;99.90
6439;DHT22;3252;52.540;13.290;2022-07-01T07:30:21;24.60;99.90
6439;DHT22;3252;52.540;13.290;2022-07-01T07:32:23;24.70;99.90
6439;DHT22;3252;52.540;13.290;2022-07-01T07:34:25;24.70;99.90
6439;DHT22;3252;52.540;13.290;2022-07-01T07:36:27;24.80;99.90
6439;DHT22;3252;52.540;13.290;2022-07-01T07:38:30;24.80;99.90
6439;DHT22;3252;52.540;13.290;2022-07-01T07:40:32;24.70;99.90
6439;DHT22;3252;52.540;13.290;2022-07-01T07:42:35;24.80;99.90
6439;DHT22;3252;52.540;13.290;2022-07-01T07:44:37;24.70;99.90
6439;DHT22;3252;52.540;13.290;2022-07-01T07:46:39;24.80;99.90
6439;DHT22;3252;52.540;13.290;2022-07-01T07:48:41;24.80;99.90
6439;DHT22;3252;52.540;13.290;2022-07-01T07:50:43;24.90;99.90
6439;DHT22;3252;52.540;13.290;2022-07-01T07:52:45;25.00;99.90
6439;DHT22;3252;52.540;13.290;2022-07-01T07:54:49;25.00;99.90
6439;DHT22;3252;52.540;13.290;2022-07-01T07:56:51;25.10;99.90
6439;DHT22;3252;52.540;13.290;2022-07-01T07:58:53;25.20;99.90
6439;DHT22;3252;52.540;13.290;2022-07-01T08:00:55;25.30;99.90
6439;DHT22;3252;52.540;13.290;2022-07-01T08:02:57;25.40;99.90
6439;DHT22;3252;52.540;13.290;2022-07-01T08:04:59;25.50;99.90
6439;DHT22;3252;52.540;13.290;2022-07-01T08:07:01;25.50;99.90
6439;DHT22;3252;52.540;13.290;2022-07-01T08:09:03;25.50;99.90
6439;DHT22;3252;52.540;13.290;2022-07-01T08:11:08;25.60;99.90
6439;DHT22;3252;52.540;13.290;2022-07-01T08:13:10;25.60;99.90
6439;DHT22;3252;52.540;13.290;2022-07-01T08:15:12;25.70;99.90
6439;DHT22;3252;52.540;13.290;2022-07-01T08:17:14;25.70;99.90
6439;DHT22;3252;52.540;13.290;2022-07-01T08:19:16;25.70;99.90
6439;DHT22;3252;52.540;13.290;2022-07-01T08:21:18;25.70;99.90
6439;DHT22;3252;52.540;13.290;2022-07-01T08:23:20;25.80;99.90
6439;DHT22;3252;52.540;13.290;2022-07-01T08:25:22;25.80;99.90
6439;DHT22;3252;52.540;13.290;2022-07-01T08:27:26;25.80;99.90
6439;DHT22;3252;52.540;13.290;2022-07-01T08:29:28;25.80;99.90
6439;DHT22;3252;52.540;13.290;2022-07-01T08:31:30;25.80;99.90
6439;DHT22;3252;52.540;13.290;2022-07-01T08:33:32;25.80;99.90
6439;DHT22;3252;52.540;13.290;2022-07-01T08:35:34;25.80;99.90
6439;DHT22;3252;52.540;13.290;2022-07-01T08:37:37;25.80;99.90
6439;DHT22;3252;52.540;13.290;2022-07-01T08:39:39;25.70;99.90
6439;DHT22;3252;52.540;13.290;2022-07-01T08:41:41;25.70;99.90
6439;DHT22;3252;52.540;13.290;2022-07-01T08:43:46;25.80;99.90
6439;DHT22;3252;52.540;13.290;2022-07-01T08:45:51;25.90;99.90
6439;DHT22;3252;52.540;13.290;2022-07-01T08:47:55;25.90;99.90
6439;DHT22;3252;52.540;13.290;2022-07-01T08:50:01;25.90;99.90
6439;DHT22;3252;52.540;13.290;2022-07-01T08:52:04;26.00;99.90
6439;DHT22;3252;52.540;13.290;2022-07-01T08:54:05;26.00;99.90
6439;DHT22;3252;52.540;13.290;2022-07-01T08:56:08;26.10;99.90
6439;DHT22;3252;52.540;13.290;2022-07-01T08:58:28;26.00;99.90
6439;DHT22;3252;52.540;13.290;2022-07-01T09:00:31;26.10;99.10
6439;DHT22;3252;52.540;13.290;2022-07-01T09:02:50;26.10;98.70
6439;DHT22;3252;52.540;13.290;2022-07-01T09:05:04;26.20;98.70
6439;DHT22;3252;52.540;13.290;2022-07-01T09:07:07;26.30;98.60
6439;DHT22;3252;52.540;13.290;2022-07-01T09:09:11;26.40;98.40
6439;DHT22;3252;52.540;13.290;2022-07-01T09:11:16;26.40;98.60
6439;DHT22;3252;52.540;13.290;2022-07-01T09:13:18;26.40;97.90
6439;DHT22;3252;52.540;13.290;2022-07-01T09:15:22;26.40;97.70
6439;DHT22;3252;52.540;13.290;2022-07-01T09:17:28;26.40;97.90
6439;DHT22;3252;52.540;13.290;2022-07-01T09:19:32;26.30;98.80
6439;DHT22;3252;52.540;13.290;2022-07-01T09:21:35;26.20;99.20
6439;DHT22;3252;52.540;13.290;2022-07-01T09:23:37;25.90;99.50
6439;DHT22;3252;52.540;13.290;2022-07-01T09:25:41;25.70;99.80
6439;DHT22;3252;52.540;13.290;2022-07-01T09:27:44;25.50;99.90
6439;DHT22;3252;52.540;13.290;2022-07-01T09:29:49;25.20;99.90
6439;DHT22;3252;52.540;13.290;2022-07-01T09:31:52;24.60;99.90
6439;DHT22;3252;52.540;13.290;2022-07-01T09:34:06;24.20;99.90
6439;DHT22;3252;52.540;13.290;2022-07-01T09:36:14;24.00;99.90
6439;DHT22;3252;52.540;13.290;2022-07-01T09:38:18;23.90;99.90
6439;DHT22;3252;52.540;13.290;2022-07-01T09:40:20;23.80;99.90
6439;DHT22;3252;52.540;13.290;2022-07-01T09:42:24;23.30;99.90
6439;DHT22;3252;52.540;13.290;2022-07-01T09:44:26;23.10;99.90
6439;DHT22;3252;52.540;13.290;2022-07-01T09:46:29;22.90;99.90
6439;DHT22;3252;52.540;13.290;2022-07-01T09:48:44;22.80;99.90
6439;DHT22;3252;52.540;13.290;2022-07-01T09:50:48;22.50;99.90
6439;DHT22;3252;52.540;13.290;2022-07-01T09:52:50;22.40;99.90
6439;DHT22;3252;52.540;13.290;2022-07-01T09:54:52;22.10;99.90
6439;DHT22;3252;52.540;13.290;2022-07-01T09:56:54;21.80;99.90
6439;DHT22;3252;52.540;13.290;2022-07-01T09:58:56;21.70;99.90
6439;DHT22;3252;52.540;13.290;2022-07-01T10:00:59;21.70;99.90
6439;DHT22;3252;52.540;13.290;2022-07-01T10:03:02;21.60;99.90
6439;DHT22;3252;52.540;13.290;2022-07-01T10:05:07;21.40;99.90
6439;DHT22;3252;52.540;13.290;2022-07-01T10:07:26;21.30;99.90
6439;DHT22;3252;52.540;13.290;2022-07-01T10:09:43;21.30;99.90
6439;DHT22;3252;52.540;13.290;2022-07-01T10:14:19;21.10;99.90
6439;DHT22;3252;52.540;13.290;2022-07-01T10:16:22;21.10;99.90
6439;DHT22;3252;52.540;13.290;2022-07-01T10:18:26;21.10;99.90
6439;DHT22;3252;52.540;13.290;2022-07-01T10:20:29;21.00;99.90
6439;DHT22;3252;52.540;13.290;2022-07-01T10:22:35;21.10;99.90
6439;DHT22;3252;52.540;13.290;2022-07-01T10:24:37;21.10;99.90
6439;DHT22;3252;52.540;13.290;2022-07-01T10:26:39;21.10;99.90
6439;DHT22;3252;52.540;13.290;2022-07-01T10:28:43;21.00;99.90
6439;DHT22;3252;52.540;13.290;2022-07-01T10:30:54;21.10;99.90
6439;DHT22;3252;52.540;13.290;2022-07-01T10:32:59;21.10;99.90
6439;DHT22;3252;52.540;13.290;2022-07-01T10:35:06;21.00;99.90
6439;DHT22;3252;52.540;13.290;2022-07-01T10:37:09;20.90;99.90
6439;DHT22;3252;52.540;13.290;2022-07-01T10:39:15;20.80;99.90
6439;DHT22;3252;52.540;13.290;2022-07-01T10:41:24;20.60;99.90
6439;DHT22;3252;52.540;13.290;2022-07-01T10:43:32;20.60;99.90
6439;DHT22;3252;52.540;13.290;2022-07-01T10:45:41;20.50;99.90
6439;DHT22;3252;52.540;13.290;2022-07-01T10:47:43;20.60;99.90
6439;DHT22;3252;52.540;13.290;2022-07-01T10:49:54;20.60;99.90
6439;DHT22;3252;52.540;13.290;2022-07-01T10:51:57;20.60;99.90
6439;DHT22;3252;52.540;13.290;2022-07-01T10:53:59;20.60;99.90
6439;DHT22;3252;52.540;13.290;2022-07-01T10:56:03;20.60;99.90
6439;DHT22;3252;52.540;13.290;2022-07-01T10:58:05;20.70;99.90
6439;DHT22;3252;52.540;13.290;2022-07-01T11:00:27;20.70;99.90
6439;DHT22;3252;52.540;13.290;2022-07-01T11:02:38;20.70;99.90
6439;DHT22;3252;52.540;13.290;2022-07-01T11:04:40;20.60;99.90
6439;DHT22;3252;52.540;13.290;2022-07-01T11:06:42;20.50;99.90
6439;DHT22;3252;52.540;13.290;2022-07-01T11:08:48;20.60;99.90
6439;DHT22;3252;52.540;13.290;2022-07-01T11:10:53;20.40;99.90
6439;DHT22;3252;52.540;13.290;2022-07-01T11:12:58;20.30;99.90
6439;DHT22;3252;52.540;13.290;2022-07-01T11:15:01;20.20;99.90
6439;DHT22;3252;52.540;13.290;2022-07-01T11:17:07;20.20;99.90
6439;DHT22;3252;52.540;13.290;2022-07-01T11:19:09;20.00;99.90
6439;DHT22;3252;52.540;13.290;2022-07-01T11:21:11;19.90;99.90
6439;DHT22;3252;52.540;13.290;2022-07-01T11:23:13;19.80;99.90
6439;DHT22;3252;52.540;13.290;2022-07-01T11:25:18;19.70;99.90
6439;DHT22;3252;52.540;13.290;2022-07-01T11:27:20;19.80;99.90
6439;DHT22;3252;52.540;13.290;2022-07-01T11:29:28;19.80;99.90
6439;DHT22;3252;52.540;13.290;2022-07-01T11:31:31;19.70;99.90
6439;DHT22;3252;52.540;13.290;2022-07-01T11:33:34;19.70;99.90
6439;DHT22;3252;52.540;13.290;2022-07-01T11:35:37;19.70;99.90
6439;DHT22;3252;52.540;13.290;2022-07-01T11:38:05;19.70;99.90
6439;DHT22;3252;52.540;13.290;2022-07-01T11:40:21;19.50;99.90
6439;DHT22;3252;52.540;13.290;2022-07-01T11:42:26;19.50;99.90
6439;DHT22;3252;52.540;13.290;2022-07-01T11:44:34;19.40;99.90
6439;DHT22;3252;52.540;13.290;2022-07-01T11:46:37;19.40;99.90
6439;DHT22;3252;52.540;13.290;2022-07-01T11:48:41;19.40;99.90
6439;DHT22;3252;52.540;13.290;2022-07-01T11:50:44;19.30;99.90
6439;DHT22;3252;52.540;13.290;2022-07-01T11:52:47;19.30;99.90
6439;DHT22;3252;52.540;13.290;2022-07-01T11:54:51;19.30;99.90
6439;DHT22;3252;52.540;13.290;2022-07-01T11:56:54;19.30;99.90
6439;DHT22;3252;52.540;13.290;2022-07-01T11:58:58;19.40;99.90
6439;DHT22;3252;52.540;13.290;2022-07-01T12:01:03;19.50;99.90
6439;DHT22;3252;52.540;13.290;2022-07-01T12:03:06;19.50;99.90
6439;DHT22;3252;52.540;13.290;2022-07-01T12:05:09;19.50;99.90
6439;DHT22;3252;52.540;13.290;2022-07-01T12:07:13;19.40;99.90
6439;DHT22;3252;52.540;13.290;2022-07-01T12:09:17;19.50;99.90
6439;DHT22;3252;52.540;13.290;2022-07-01T12:11:21;19.50;99.90
6439;DHT22;3252;52.540;13.290;2022-07-01T12:13:24;19.50;99.90
6439;DHT22;3252;52.540;13.290;2022-07-01T12:15:26;19.50;99.90
6439;DHT22;3252;52.540;13.290;2022-07-01T12:17:30;19.50;99.90
6439;DHT22;3252;52.540;13.290;2022-07-01T12:19:38;19.60;99.90
6439;DHT22;3252;52.540;13.290;2022-07-01T12:21:49;19.60;99.90
6439;DHT22;3252;52.540;13.290;2022-07-01T12:24:12;19.70;99.90
6439;DHT22;3252;52.540;13.290;2022-07-01T12:26:14;19.80;99.90
6439;DHT22;3252;52.540;13.290;2022-07-01T12:28:32;19.80;99.90
6439;DHT22;3252;52.540;13.290;2022-07-01T12:30:34;19.80;99.90
6439;DHT22;3252;52.540;13.290;2022-07-01T12:32:39;19.80;99.90
6439;DHT22;3252;52.540;13.290;2022-07-01T12:34:45;19.80;99.90
6439;DHT22;3252;52.540;13.290;2022-07-01T12:36:48;19.80;99.90
6439;DHT22;3252;52.540;13.290;2022-07-01T12:39:00;19.90;99.90
6439;DHT22;3252;52.540;13.290;2022-07-01T12:41:03;19.90;99.90
6439;DHT22;3252;52.540;13.290;2022-07-01T12:43:27;19.90;99.90
6439;DHT22;3252;52.540;13.290;2022-07-01T12:45:30;19.80;99.90
6439;DHT22;3252;52.540;13.290;2022-07-01T12:47:34;19.80;99.90
6439;DHT22;3252;52.540;13.290;2022-07-01T12:49:38;19.80;99.90
6439;DHT22;3252;52.540;13.290;2022-07-01T12:51:40;19.70;99.90
6439;DHT22;3252;52.540;13.290;2022-07-01T12:53:42;19.70;99.90
6439;DHT22;3252;52.540;13.290;2022-07-01T12:55:45;19.70;99.90
6439;DHT22;3252;52.540;13.290;2022-07-01T12:57:48;19.70;99.90
6439;DHT22;3252;52.540;13.290;2022-07-01T12:59:50;19.70;99.90
6439;DHT22;3252;52.540;13.290;2022-07-01T13:01:53;19.80;99.90
6439;DHT22;3252;52.540;13.290;2022-07-01T13:03:59;19.70;99.90
6439;DHT22;3252;52.540;13.290;2022-07-01T13:06:02;19.80;99.90
6439;DHT22;3252;52.540;13.290;2022-07-01T13:08:06;19.80;99.90
6439;DHT22;3252;52.540;13.290;2022-07-01T13:10:08;19.80;99.90
6439;DHT22;3252;52.540;13.290;2022-07-01T13:12:10;19.80;99.90
6439;DHT22;3252;52.540;13.290;2022-07-01T13:14:12;19.70;99.90
6439;DHT22;3252;52.540;13.290;2022-07-01T13:16:16;19.70;99.90